Time;durP1;ratioP1;P1;durP2;ratioP2;P2;SDS_P1;SDS_P2;PMS_P1;PMS_P2;Temp;Humidity;BMP_temperature;BMP_pressure;BME280_temperature;BME280_humidity;BME280_pressure;Samples;Min_cycle;Max_cycle;Signal;HPM_P1;HPM_P2
2021/08/12 00:02:39;;;;;;;14.68;9.15;;;;;;;17.69;63.21;101882.59;10508454;28;20055;-83
2021/08/12 00:07:41;;;;;;;15.93;9.02;;;;;;;17.70;62.49;101865.09;10523956;28;20128;-83
2021/08/12 00:12:41;;;;;;;11.48;8.45;;;;;;;17.78;62.09;101887.63;10507175;28;20028;-83
2021/08/12 00:17:41;;;;;;;11.73;10.02;;;;;;;17.64;62.24;101878.63;10527647;28;20059;-83
2021/08/12 00:22:42;;;;;;;12.00;8.93;;;;;;;17.90;63.85;101931.59;10525436;28;20036;-83
2021/08/12 00:27:42;;;;;;;15.43;10.73;;;;;;;17.91;63.82;101932.44;10525075;28;20066;-83
2021/08/12 00:32:43;;;;;;;12.23;10.75;;;;;;;17.88;64.49;101936.44;10524610;28;20048;-83
2021/08/12 00:37:43;;;;;;;11.38;9.90;;;;;;;17.92;63.68;101937.69;10524733;28;20044;-83
2021/08/12 00:42:44;;;;;;;13.88;8.57;;;;;;;17.96;64.29;101935.31;10522141;28;20098;-83
2021/08/12 00:47:44;;;;;;;9.55;8.60;;;;;;;17.79;63.84;101911.19;10520532;28;20024;-84
2021/08/12 00:52:45;;;;;;;15.00;10.10;;;;;;;17.87;63.89;101932.03;10538721;28;20093;-84
2021/08/12 00:57:45;;;;;;;12.27;8.88;;;;;;;17.62;63.67;101897.16;10537653;28;20024;-83
2021/08/12 01:02:45;;;;;;;15.20;8.57;;;;;;;17.87;64.05;101921.91;10485291;28;20024;-83
2021/08/12 01:07:48;;;;;;;18.73;9.50;;;;;;;17.83;64.17;101923.38;10518937;28;20043;-83
2021/08/12 01:13:04;;;;;;;12.60;8.55;;;;;;;17.40;61.99;101863.81;10535546;28;20097;-83
2021/08/12 01:18:24;;;;;;;13.35;8.82;;;;;;;17.77;62.39;101918.81;10502007;28;20468;-83
2021/08/12 01:23:25;;;;;;;12.73;9.35;;;;;;;17.72;64.13;101921.34;10536154;28;20107;-83
2021/08/12 01:28:28;;;;;;;11.55;8.40;;;;;;;17.81;64.38;101932.91;10518849;28;20119;-83
2021/08/12 01:33:34;;;;;;;10.45;8.18;;;;;;;17.83;64.13;101934.34;10518419;28;20036;-83
2021/08/12 01:38:34;;;;;;;14.27;9.40;;;;;;;17.69;63.74;101904.50;10517625;28;20039;-84
2021/08/12 01:43:35;;;;;;;10.63;9.07;;;;;;;17.76;65.15;101903.41;10501283;28;20071;-83
2021/08/12 01:48:35;;;;;;;16.33;9.15;;;;;;;17.69;64.31;101899.88;10536117;28;20050;-82
2021/08/12 01:53:36;;;;;;;12.57;7.53;;;;;;;17.71;64.68;101903.22;10501600;28;20104;-83
2021/08/12 01:58:37;;;;;;;11.82;8.68;;;;;;;17.68;65.44;101898.19;10536521;28;20032;-83
2021/08/12 02:03:37;;;;;;;14.18;9.75;;;;;;;17.76;65.23;101900.66;10504009;28;20550;-82
2021/08/12 02:08:37;;;;;;;15.52;8.35;;;;;;;17.89;64.71;101897.84;10505382;28;20032;-83
2021/08/12 02:13:38;;;;;;;13.77;8.35;;;;;;;17.96;64.98;101892.31;10486325;28;20036;-83
2021/08/12 02:18:41;;;;;;;11.77;8.02;;;;;;;17.94;64.06;101893.63;10518457;28;20526;-83
2021/08/12 02:23:51;;;;;;;15.73;9.25;;;;;;;17.94;63.66;101893.63;10518320;28;20127;-83
2021/08/12 02:28:51;;;;;;;12.43;9.75;;;;;;;17.94;64.53;101886.22;10534725;28;20032;-83
2021/08/12 02:33:52;;;;;;;11.40;8.68;;;;;;;17.74;64.50;101860.84;10516035;28;20044;-83
2021/08/12 02:38:52;;;;;;;13.68;8.52;;;;;;;17.71;65.03;101875.84;10533389;28;20090;-83
2021/08/12 02:43:53;;;;;;;9.90;8.32;;;;;;;17.68;64.64;101887.25;10515943;28;20047;-83
2021/08/12 02:48:54;;;;;;;9.85;8.57;;;;;;;17.57;65.12;101886.03;10516845;28;20488;-83
2021/08/12 02:53:54;;;;;;;15.48;9.13;;;;;;;17.46;65.53;101877.69;10499303;28;20570;-84
2021/08/12 02:58:55;;;;;;;11.65;8.63;;;;;;;17.43;65.47;101879.78;10533710;28;20447;-83
2021/08/12 03:03:56;;;;;;;12.35;8.45;;;;;;;17.42;65.70;101889.06;10515652;28;20074;-83
2021/08/12 03:08:56;;;;;;;11.13;9.38;;;;;;;17.45;65.18;101893.25;10515090;28;20028;-83
2021/08/12 03:13:57;;;;;;;13.07;9.13;;;;;;;17.35;65.47;101880.03;10516334;28;20040;-83
2021/08/12 03:18:57;;;;;;;24.63;11.98;;;;;;;17.32;65.43;101871.41;10533174;28;20140;-83
2021/08/12 03:24:01;;;;;;;17.73;10.88;;;;;;;17.42;65.80;101901.91;10537534;28;20044;-83
2021/08/12 03:29:01;;;;;;;17.52;12.38;;;;;;;17.36;65.64;101889.94;10545570;28;20177;-83
2021/08/12 03:34:02;;;;;;;15.48;11.85;;;;;;;17.34;65.60;101881.09;10544944;28;20178;-83
2021/08/12 03:39:02;;;;;;;16.33;11.63;;;;;;;17.50;65.81;101896.19;10543222;28;20124;-83
2021/08/12 03:44:03;;;;;;;14.70;12.27;;;;;;;17.55;65.37;101885.41;10544771;28;20036;-83
2021/08/12 03:49:03;;;;;;;14.70;10.82;;;;;;;17.60;65.89;101892.97;10526471;28;20066;-83
2021/08/12 03:54:04;;;;;;;14.45;10.48;;;;;;;17.64;65.14;101892.31;10526637;28;20462;-83
2021/08/12 03:59:05;;;;;;;15.40;12.88;;;;;;;17.26;65.67;101828.50;10544067;28;20039;-83
2021/08/12 04:04:05;;;;;;;14.15;10.85;;;;;;;17.71;65.86;101894.16;10542878;28;20032;-83
2021/08/12 04:09:05;;;;;;;13.98;11.02;;;;;;;17.80;66.02;101892.84;10541887;28;20062;-83
2021/08/12 04:14:06;;;;;;;15.73;12.02;;;;;;;17.83;65.76;101887.78;10543842;28;20075;-83
2021/08/12 04:19:06;;;;;;;22.65;12.80;;;;;;;17.71;66.16;101858.53;10543498;28;20101;-83
2021/08/12 04:24:07;;;;;;;17.10;11.13;;;;;;;17.91;67.19;101896.81;10543257;28;20127;-83
2021/08/12 04:29:07;;;;;;;21.05;13.07;;;;;;;17.94;66.98;101885.41;10543609;28;20437;-83
2021/08/12 04:34:07;;;;;;;22.98;14.00;;;;;;;18.09;67.58;101900.47;10543341;28;20035;-82
2021/08/12 04:39:08;;;;;;;23.13;13.50;;;;;;;18.12;67.28;101902.75;10542162;28;20040;-83
2021/08/12 04:44:09;;;;;;;25.05;17.42;;;;;;;18.20;67.96;101911.75;10471946;28;20076;-83
2021/08/12 04:49:09;;;;;;;20.00;15.93;;;;;;;18.27;67.64;101912.53;10523982;28;20036;-83
2021/08/12 04:54:09;;;;;;;20.23;16.25;;;;;;;18.34;67.68;101913.31;10542541;28;20024;-83
2021/08/12 04:59:10;;;;;;;19.70;15.32;;;;;;;18.38;67.47;101909.06;10541847;28;20032;-83
2021/08/12 05:04:10;;;;;;;24.98;14.82;;;;;;;18.45;67.42;101909.84;10541540;28;20373;-83
2021/08/12 05:09:11;;;;;;;21.88;14.35;;;;;;;18.34;67.14;101880.41;10541098;28;20040;-85
2021/08/12 05:14:11;;;;;;;27.92;15.32;;;;;;;18.26;67.43;101867.00;10522994;28;20020;-82
2021/08/12 05:19:11;;;;;;;25.42;15.27;;;;;;;18.50;67.79;101901.75;10540822;28;20518;-82
2021/08/12 05:24:12;;;;;;;19.00;14.15;;;;;;;18.61;67.48;101896.63;10540930;28;20123;-83
2021/08/12 05:29:12;;;;;;;20.63;15.27;;;;;;;18.48;67.59;101890.19;10540533;28;20095;-83
2021/08/12 05:34:12;;;;;;;19.00;14.52;;;;;;;18.58;66.40;101904.22;10541163;28;20048;-83
2021/08/12 05:39:13;;;;;;;16.63;14.52;;;;;;;18.74;67.49;101910.22;10521601;28;20149;-83
2021/08/12 05:44:13;;;;;;;16.70;15.00;;;;;;;19.94;65.98;101895.75;10540091;28;20464;-83
2021/08/12 05:49:14;;;;;;;27.88;16.77;;;;;;;20.76;64.18;101868.31;10521621;28;20134;-83
2021/08/12 05:54:14;;;;;;;21.70;13.88;;;;;;;21.95;61.58;101895.22;10540014;28;20056;-83
2021/08/12 05:59:15;;;;;;;22.20;12.88;;;;;;;22.10;61.27;101924.13;10540622;28;20078;-83
2021/08/12 06:04:15;;;;;;;16.52;12.05;;;;;;;22.39;60.69;101898.13;10522871;28;20044;-82
2021/08/12 06:09:15;;;;;;;14.05;11.68;;;;;;;23.05;59.69;101914.84;10524378;28;20070;-82
2021/08/12 06:14:16;;;;;;;14.13;12.13;;;;;;;23.56;59.14;101918.22;10543285;28;20065;-83
2021/08/12 06:19:16;;;;;;;13.15;8.93;;;;;;;24.16;57.54;101913.56;10520945;28;20109;-82
2021/08/12 06:24:16;;;;;;;28.73;13.27;;;;;;;24.23;56.51;101897.56;10538958;28;20032;-83
2021/08/12 06:29:17;;;;;;;11.70;8.90;;;;;;;24.98;55.51;101914.97;10539418;28;20415;-83
2021/08/12 06:34:17;;;;;;;18.17;8.90;;;;;;;24.38;55.28;101888.56;10539021;28;20044;-83
2021/08/12 06:39:18;;;;;;;27.67;7.82;;;;;;;24.78;56.28;101924.00;10538023;28;20036;-82
2021/08/12 06:44:18;;;;;;;12.52;7.10;;;;;;;24.87;55.32;101862.53;10520340;28;20048;-82
2021/08/12 06:49:18;;;;;;;8.70;6.53;;;;;;;25.03;53.87;101922.47;10538516;28;20119;-82
2021/08/12 06:54:19;;;;;;;9.68;6.18;;;;;;;25.80;53.04;101909.69;10520350;28;20032;-82
2021/08/12 06:59:19;;;;;;;7.10;5.85;;;;;;;26.21;51.03;101918.91;10539671;28;20426;-82
2021/08/12 07:04:21;;;;;;;9.57;4.90;;;;;;;26.63;51.56;101923.31;10528421;28;20040;-82
2021/08/12 07:09:22;;;;;;;5.32;4.32;;;;;;;27.25;50.24;101917.56;10545566;28;20051;-82
2021/08/12 07:14:22;;;;;;;5.95;4.20;;;;;;;27.85;49.83;101907.22;10545883;28;20036;-82
2021/08/12 07:19:22;;;;;;;3.75;3.42;;;;;;;27.93;49.04;101905.78;10545622;28;20060;-82
2021/08/12 07:24:25;;;;;;;4.90;3.42;;;;;;;27.97;48.80;101918.00;10545663;28;20039;-82
2021/08/12 07:29:25;;;;;;;4.97;3.65;;;;;;;28.20;49.40;101931.16;10544014;28;20052;-82
2021/08/12 07:34:25;;;;;;;11.05;4.07;;;;;;;28.21;45.85;101926.47;10543476;28;20047;-81
2021/08/12 07:39:26;;;;;;;6.15;3.53;;;;;;;28.40;47.80;101896.78;10541780;28;20036;-82
2021/08/12 07:44:26;;;;;;;4.90;4.18;;;;;;;28.88;45.57;101930.25;10540902;28;20118;-82
2021/08/12 07:49:27;;;;;;;5.57;4.03;;;;;;;29.12;48.45;101927.47;10541351;28;20103;-82
2021/08/12 07:54:27;;;;;;;3.35;3.08;;;;;;;28.58;46.90;101928.63;10544587;28;20047;-81
2021/08/12 07:59:27;;;;;;;10.77;2.80;;;;;;;29.08;46.61;101922.81;10543392;28;20105;-81
2021/08/12 08:04:28;;;;;;;3.03;2.75;;;;;;;29.47;46.28;101938.47;10526114;28;20043;-81
2021/08/12 08:09:28;;;;;;;3.95;3.13;;;;;;;29.72;43.45;101935.34;10542866;28;20032;-81
2021/08/12 08:14:29;;;;;;;3.05;2.58;;;;;;;29.66;43.12;101917.84;10525640;28;20153;-81
2021/08/12 08:19:30;;;;;;;12.13;2.70;;;;;;;29.76;43.03;101941.97;10531664;28;20059;-80
2021/08/12 08:24:30;;;;;;;6.50;3.03;;;;;;;29.57;42.29;101922.41;10556463;28;20509;-81
2021/08/12 08:29:32;;;;;;;2.25;2.13;;;;;;;29.80;42.70;101945.00;10542482;28;20386;-81
2021/08/12 08:34:32;;;;;;;2.35;1.92;;;;;;;30.07;41.84;101877.25;10522222;28;20408;-81
2021/08/12 08:39:33;;;;;;;2.50;2.35;;;;;;;30.59;41.38;101931.94;10519758;28;20039;-81
2021/08/12 08:44:34;;;;;;;3.70;2.40;;;;;;;30.17;41.35;101888.25;10538602;28;20559;-81
2021/08/12 08:49:36;;;;;;;2.42;2.13;;;;;;;30.75;41.81;101924.06;10522489;28;20066;-80
2021/08/12 08:54:37;;;;;;;3.65;3.10;;;;;;;30.99;41.62;101953.88;10521335;28;20491;-81
2021/08/12 08:59:38;;;;;;;3.53;3.22;;;;;;;30.78;41.95;101923.50;10502658;28;20035;-81
2021/08/12 09:04:39;;;;;;;2.75;2.53;;;;;;;31.39;43.84;101938.19;10538563;28;20413;-81
2021/08/12 09:09:39;;;;;;;6.43;3.40;;;;;;;30.90;42.87;101931.38;10517409;28;20044;-81
2021/08/12 09:14:41;;;;;;;4.47;2.95;;;;;;;30.83;43.69;101941.34;10537524;28;20034;-81
2021/08/12 09:19:41;;;;;;;3.42;3.22;;;;;;;30.87;44.25;101925.59;10533717;28;20052;-81
2021/08/12 09:24:51;;;;;;;4.00;2.63;;;;;;;31.06;44.86;101939.47;10530705;28;20122;-81
2021/08/12 09:30:08;;;;;;;6.55;2.03;;;;;;;31.54;45.86;101933.41;10531523;28;20047;-81
2021/08/12 09:35:08;;;;;;;3.13;2.33;;;;;;;31.51;41.07;101898.47;10534684;28;20043;-80
2021/08/12 09:40:09;;;;;;;3.78;2.75;;;;;;;31.65;42.05;101941.28;10535444;28;20044;-80
2021/08/12 09:45:24;;;;;;;5.22;2.40;;;;;;;31.89;43.25;101941.00;10535043;28;20114;-80
2021/08/12 09:50:26;;;;;;;3.10;2.47;;;;;;;31.86;40.55;101946.38;10520987;28;20027;-81
2021/08/12 09:55:26;;;;;;;2.78;2.58;;;;;;;32.64;48.27;101945.00;10536855;28;20138;-80
2021/08/12 10:00:31;;;;;;;2.95;2.65;;;;;;;32.53;40.31;101926.78;10503129;28;20047;-80
2021/08/12 10:05:35;;;;;;;4.05;2.55;;;;;;;33.22;40.52;101902.97;10519925;28;20059;-80
2021/08/12 10:10:36;;;;;;;2.95;2.38;;;;;;;33.46;41.19;101945.44;10518471;28;20420;-80
2021/08/12 10:15:36;;;;;;;6.28;3.20;;;;;;;34.09;38.51;101931.13;10537193;28;20064;-80
2021/08/12 10:20:36;;;;;;;3.13;2.25;;;;;;;33.93;41.29;101925.97;10538178;28;20382;-80
2021/08/12 10:25:37;;;;;;;3.03;2.45;;;;;;;33.99;39.38;101941.53;10537906;28;20537;-80
2021/08/12 10:30:38;;;;;;;2.60;2.40;;;;;;;33.75;45.38;101901.84;10520312;28;20098;-80
2021/08/12 10:35:38;;;;;;;4.82;3.13;;;;;;;33.93;40.82;101945.66;10523192;28;20067;-80
2021/08/12 10:40:39;;;;;;;1.83;1.73;;;;;;;34.12;38.15;101944.50;10526171;28;20424;-80
2021/08/12 10:45:39;;;;;;;9.73;4.13;;;;;;;33.64;46.45;101928.66;10509398;28;20032;-80
2021/08/12 10:50:40;;;;;;;2.65;2.05;;;;;;;34.00;37.83;101905.81;10544241;28;20036;-80
2021/08/12 10:55:41;;;;;;;6.18;2.90;;;;;;;33.71;39.70;101898.06;10544452;28;20028;-80
2021/08/12 11:00:52;;;;;;;8.27;3.30;;;;;;;32.69;40.75;101901.94;10545031;28;20040;-80
2021/08/12 11:06:05;;;;;;;2.10;2.00;;;;;;;31.77;42.81;101898.69;10526794;28;20687;-81
2021/08/12 11:11:06;;;;;;;3.92;2.65;;;;;;;32.01;39.92;101951.66;10508630;28;20093;-80
2021/08/12 11:16:06;;;;;;;2.67;2.55;;;;;;;32.17;38.97;101933.31;10541297;28;20079;-81
2021/08/12 11:21:29;;;;;;;2.90;2.70;;;;;;;32.20;44.83;101937.44;10523257;28;20104;-81
2021/08/12 11:26:48;;;;;;;4.55;3.58;;;;;;;33.28;44.28;101940.94;10541313;28;20039;-81
2021/08/12 11:31:48;;;;;;;3.03;2.50;;;;;;;33.70;38.36;101947.00;10541575;28;20036;-81
2021/08/12 11:37:21;;;;;;;5.95;2.75;;;;;;;33.91;43.07;101933.91;10542119;28;20094;-80
2021/08/12 11:42:40;;;;;;;4.22;2.22;;;;;;;33.83;36.53;101933.94;10539228;28;20067;-80
2021/08/12 11:47:42;;;;;;;3.65;3.33;;;;;;;33.35;38.43;101932.88;10539017;28;20028;-80
2021/08/12 11:52:47;;;;;;;5.18;3.42;;;;;;;33.34;38.50;101934.00;10539862;28;20044;-80
2021/08/12 11:57:55;;;;;;;1.60;1.50;;;;;;;33.27;39.29;101925.25;10539150;28;20389;-80
2021/08/12 12:02:57;;;;;;;2.53;2.33;;;;;;;31.91;38.71;101932.28;10539324;28;20273;-81
2021/08/12 12:08:10;;;;;;;4.80;2.67;;;;;;;30.94;40.15;101953.97;10540523;28;20039;-80
2021/08/12 12:13:12;;;;;;;2.70;2.42;;;;;;;30.77;41.10;101946.19;10506585;28;20039;-80
2021/08/12 12:18:42;;;;;;;3.67;2.63;;;;;;;30.59;42.14;101928.31;10540986;28;20055;-81
2021/08/12 12:23:46;;;;;;;3.33;3.08;;;;;;;31.48;40.35;101939.13;10539958;28;20055;-81
2021/08/12 12:28:50;;;;;;;3.53;3.22;;;;;;;32.63;42.45;101904.06;10524947;28;20119;-80
2021/08/12 12:34:01;;;;;;;6.93;3.45;;;;;;;33.42;39.42;101938.00;10525388;28;20028;-80
2021/08/12 12:39:02;;;;;;;2.78;2.58;;;;;;;34.30;37.48;101918.00;10523961;28;20063;-81
2021/08/12 12:44:07;;;;;;;5.88;4.43;;;;;;;34.34;35.92;101930.25;10508262;28;20043;-80
2021/08/12 12:49:23;;;;;;;3.97;2.72;;;;;;;34.13;40.66;101895.56;10542186;28;20032;-80
2021/08/12 12:54:31;;;;;;;4.07;3.13;;;;;;;33.72;39.33;101933.41;10542028;28;20039;-80
2021/08/12 12:59:31;;;;;;;7.38;3.53;;;;;;;32.72;39.18;101934.13;10541609;28;20085;-79
2021/08/12 13:04:32;;;;;;;3.85;3.42;;;;;;;32.24;40.23;101890.81;10541335;28;20040;-80
2021/08/12 13:09:38;;;;;;;3.70;3.40;;;;;;;32.32;41.56;101881.59;10523175;28;20051;-80
2021/08/12 13:14:39;;;;;;;12.32;3.80;;;;;;;32.86;39.86;101918.00;10523411;28;20111;-81
2021/08/12 13:19:39;;;;;;;4.22;3.88;;;;;;;33.42;40.78;101896.72;10540947;28;20495;-80
2021/08/12 13:24:40;;;;;;;4.78;4.30;;;;;;;33.96;38.46;101865.47;10540890;28;20059;-80
2021/08/12 13:29:41;;;;;;;4.22;3.80;;;;;;;34.84;39.06;101923.94;10522734;28;20122;-80
2021/08/12 13:34:44;;;;;;;5.53;4.65;;;;;;;35.07;37.84;101920.88;10540909;28;20165;-81
2021/08/12 13:39:45;;;;;;;3.83;3.58;;;;;;;34.51;38.22;101925.72;10539621;28;20589;-80
2021/08/12 13:44:46;;;;;;;5.70;5.18;;;;;;;33.02;40.30;101893.97;10539833;28;20460;-80
2021/08/12 13:49:47;;;;;;;5.18;4.70;;;;;;;33.73;38.68;101912.63;10539701;28;20032;-80
2021/08/12 13:54:47;;;;;;;5.82;5.05;;;;;;;33.93;37.57;101864.16;10539693;28;20031;-80
2021/08/12 13:59:48;;;;;;;4.65;4.25;;;;;;;33.56;39.15;101927.47;10521081;28;20081;-80
2021/08/12 14:04:48;;;;;;;4.63;4.18;;;;;;;33.36;38.46;101920.47;10521044;28;20139;-80
2021/08/12 14:09:52;;;;;;;4.03;3.53;;;;;;;31.57;44.70;101860.81;10538629;28;20035;-81
2021/08/12 14:14:52;;;;;;;7.88;5.72;;;;;;;30.18;44.33;101908.63;10539396;28;20381;-80
2021/08/12 14:19:54;;;;;;;5.85;4.82;;;;;;;30.92;44.47;101884.38;10504128;28;20154;-80
2021/08/12 14:24:55;;;;;;;10.68;6.05;;;;;;;31.41;42.66;101842.72;10521318;28;20106;-80
2021/08/12 14:29:55;;;;;;;12.88;4.55;;;;;;;31.48;42.61;101902.72;10521572;28;20090;-81
2021/08/12 14:34:57;;;;;;;6.00;5.32;;;;;;;29.83;48.00;101880.16;10539169;28;20044;-81
2021/08/12 14:40:02;;;;;;;10.85;6.43;;;;;;;29.32;45.57;101887.31;10520560;28;20043;-80
2021/08/12 14:45:04;;;;;;;17.13;15.48;;;;;;;29.98;44.49;101863.16;10522008;28;20036;-81
2021/08/12 14:50:06;;;;;;;7.68;5.35;;;;;;;31.17;44.46;101884.94;10521064;28;20067;-81
2021/08/12 14:55:08;;;;;;;11.68;5.13;;;;;;;31.28;43.99;101866.78;10503906;28;20073;-81
2021/08/12 15:00:09;;;;;;;11.75;5.85;;;;;;;31.26;44.12;101891.44;10503664;28;20051;-81
2021/08/12 15:05:10;;;;;;;7.00;5.13;;;;;;;31.14;43.78;101886.38;10538186;28;20039;-81
2021/08/12 15:10:11;;;;;;;4.72;3.95;;;;;;;30.99;43.05;101873.56;10537717;28;20074;-80
2021/08/12 15:15:11;;;;;;;7.60;4.82;;;;;;;30.61;43.80;101889.72;10538055;28;20081;-81
2021/08/12 15:20:12;;;;;;;5.97;5.38;;;;;;;30.20;45.30;101879.28;10538883;28;20560;-81
2021/08/12 15:25:12;;;;;;;8.00;5.38;;;;;;;30.06;44.84;101900.75;10527977;28;20032;-81
2021/08/12 15:30:13;;;;;;;6.35;5.63;;;;;;;29.97;46.23;101892.22;10545638;28;20040;-81
2021/08/12 15:35:14;;;;;;;8.07;5.80;;;;;;;30.00;44.72;101900.00;10527383;28;20097;-81
2021/08/12 15:40:14;;;;;;;6.88;5.85;;;;;;;29.26;47.45;101874.59;10544170;28;20586;-81
2021/08/12 15:45:14;;;;;;;8.88;6.32;;;;;;;28.99;48.32;101841.72;10545578;28;20052;-81
2021/08/12 15:50:15;;;;;;;10.82;4.82;;;;;;;29.15;47.79;101882.25;10526643;28;20024;-81
2021/08/12 15:55:15;;;;;;;6.85;4.60;;;;;;;28.99;47.08;101894.72;10544609;28;20468;-81
2021/08/12 16:00:16;;;;;;;6.53;5.88;;;;;;;28.82;46.86;101878.47;10544451;28;20113;-81
2021/08/12 16:05:16;;;;;;;6.00;5.50;;;;;;;28.97;46.74;101896.94;10543920;28;20036;-81
2021/08/12 16:10:17;;;;;;;12.18;5.07;;;;;;;28.63;47.19;101878.41;10543332;28;20036;-81
2021/08/12 16:15:17;;;;;;;7.53;5.82;;;;;;;28.34;47.61;101883.16;10525467;28;20044;-82
2021/08/12 16:20:18;;;;;;;5.03;4.55;;;;;;;28.23;47.71;101887.97;10525313;28;20052;-81
2021/08/12 16:25:18;;;;;;;4.30;4.00;;;;;;;27.77;48.20;101896.72;10525357;28;20035;-81
2021/08/12 16:30:19;;;;;;;10.60;5.47;;;;;;;27.13;49.35;101899.28;10543173;28;20036;-82
2021/08/12 16:35:20;;;;;;;7.13;5.07;;;;;;;26.65;50.40;101898.88;10542728;28;20079;-82
2021/08/12 16:40:21;;;;;;;4.53;4.15;;;;;;;26.22;51.21;101891.97;10524059;28;20115;-82
2021/08/12 16:45:21;;;;;;;9.77;4.78;;;;;;;25.59;51.08;101800.66;10507969;28;20067;-82
2021/08/12 16:50:21;;;;;;;10.05;4.53;;;;;;;25.91;51.23;101880.88;10524703;28;20047;-82
2021/08/12 16:55:22;;;;;;;5.68;4.05;;;;;;;25.38;51.61;101819.22;10542274;28;20040;-82
2021/08/12 17:00:22;;;;;;;5.65;4.45;;;;;;;25.75;51.44;101891.09;10507470;28;20040;-82
2021/08/12 17:05:23;;;;;;;7.15;4.15;;;;;;;25.67;51.46;101877.75;10523652;28;20093;-82
2021/08/12 17:10:23;;;;;;;6.88;4.15;;;;;;;25.65;51.73;101870.81;10541268;28;20527;-82
2021/08/12 17:15:24;;;;;;;4.72;4.32;;;;;;;25.62;51.53;101875.00;10506282;28;20078;-82
2021/08/12 17:20:25;;;;;;;6.50;4.63;;;;;;;25.28;51.83;101808.09;10541335;28;20205;-82
2021/08/12 17:25:25;;;;;;;5.05;4.57;;;;;;;25.08;51.76;101767.28;10523081;28;20073;-82
2021/08/12 17:30:25;;;;;;;3.20;3.00;;;;;;;25.98;51.18;101875.06;10541056;28;20379;-82
2021/08/12 17:35:26;;;;;;;8.50;4.55;;;;;;;26.12;51.32;101873.38;10543101;28;20064;-81
2021/08/12 17:40:26;;;;;;;10.55;6.05;;;;;;;26.14;50.75;101887.00;10543420;28;20475;-81
2021/08/12 17:45:27;;;;;;;6.43;5.82;;;;;;;25.50;51.37;101822.56;10523204;28;20048;-82
2021/08/12 17:50:28;;;;;;;6.13;5.10;;;;;;;25.63;51.06;101882.22;10522284;28;20093;-82
2021/08/12 17:55:28;;;;;;;10.70;6.25;;;;;;;25.39;51.67;101869.94;10540211;28;20093;-82
2021/08/12 18:00:29;;;;;;;6.28;5.25;;;;;;;25.22;52.04;101878.50;10539783;28;20127;-81
2021/08/12 18:05:29;;;;;;;10.85;5.10;;;;;;;24.99;52.25;101879.78;10539645;28;20035;-82
2021/08/12 18:10:30;;;;;;;7.18;5.05;;;;;;;24.76;52.53;101870.81;10539576;28;20036;-82
2021/08/12 18:15:31;;;;;;;4.47;4.07;;;;;;;24.31;52.44;101833.41;10538849;28;20089;-81
2021/08/12 18:20:31;;;;;;;4.32;3.92;;;;;;;24.40;52.66;101875.25;10521392;28;20028;-82
2021/08/12 18:25:32;;;;;;;4.65;4.15;;;;;;;24.22;52.95;101895.91;10539261;28;20032;-82
2021/08/12 18:30:33;;;;;;;6.40;4.55;;;;;;;23.82;53.03;101854.88;10520979;28;20047;-82
2021/08/12 18:35:34;;;;;;;11.05;4.30;;;;;;;23.87;53.53;101894.50;10504199;28;20499;-82
2021/08/12 18:40:34;;;;;;;8.23;4.32;;;;;;;23.75;53.52;101890.25;10537587;28;20040;-81
2021/08/12 18:45:34;;;;;;;5.65;4.05;;;;;;;23.60;53.88;101888.09;10469673;28;20133;-87
2021/08/12 18:50:35;;;;;;;6.90;4.35;;;;;;;23.16;54.02;101849.47;10538417;28;20044;-80
2021/08/12 18:55:35;;;;;;;4.28;3.15;;;;;;;23.38;54.20;101901.97;10506906;28;20046;-81
2021/08/12 19:00:36;;;;;;;5.13;4.45;;;;;;;23.33;54.25;101900.00;10547397;28;20050;-81
2021/08/12 19:05:36;;;;;;;4.97;4.18;;;;;;;23.27;54.29;101878.09;10528476;28;20151;-80
2021/08/12 19:10:36;;;;;;;3.90;3.42;;;;;;;23.31;54.12;101893.88;10510657;28;20375;-80
2021/08/12 19:15:37;;;;;;;7.10;4.85;;;;;;;22.81;54.44;101847.09;10544239;28;20028;-80
2021/08/12 19:20:38;;;;;;;6.93;5.60;;;;;;;22.88;54.86;101898.31;10521178;28;20036;-80
2021/08/12 19:25:38;;;;;;;9.68;5.82;;;;;;;22.69;55.06;101889.47;10518993;28;20063;-81
2021/08/12 19:30:39;;;;;;;12.70;5.43;;;;;;;22.21;55.54;101859.78;10518043;28;20152;-80
2021/08/12 19:35:39;;;;;;;7.72;4.47;;;;;;;22.15;55.68;101877.31;10540258;28;20042;-81
2021/08/12 19:40:40;;;;;;;9.65;4.40;;;;;;;22.24;56.11;101933.78;10518354;28;20126;-80
2021/08/12 19:45:40;;;;;;;10.85;6.40;;;;;;;22.13;56.19;101929.97;10538430;28;20066;-81
2021/08/12 19:50:43;;;;;;;12.15;6.20;;;;;;;22.01;56.28;101938.31;10540429;28;20064;-80
2021/08/12 19:55:44;;;;;;;8.98;7.00;;;;;;;21.90;56.85;101936.47;10536824;28;20138;-80
2021/08/12 20:00:44;;;;;;;23.52;6.45;;;;;;;21.74;57.20;101937.28;10517122;28;20115;-81
2021/08/12 20:05:44;;;;;;;13.68;7.45;;;;;;;21.71;57.50;101944.13;10514356;28;20083;-80
2021/08/12 20:10:45;;;;;;;7.90;5.43;;;;;;;21.50;57.54;101936.53;10532177;28;20127;-81
2021/08/12 20:15:45;;;;;;;5.68;4.93;;;;;;;21.50;58.21;101942.88;10531495;28;20246;-81
2021/08/12 20:20:46;;;;;;;8.48;5.75;;;;;;;21.45;57.82;101952.97;10513525;28;20032;-80
2021/08/12 20:25:46;;;;;;;7.20;5.93;;;;;;;21.36;57.82;101972.63;10529180;28;20115;-80
2021/08/12 20:30:47;;;;;;;8.30;6.60;;;;;;;21.38;57.78;101988.94;10510454;28;20075;-80
2021/08/12 20:35:47;;;;;;;19.20;6.97;;;;;;;21.33;57.89;101992.38;10529967;28;20225;-80
2021/08/12 20:40:49;;;;;;;8.40;5.78;;;;;;;21.32;58.22;101995.38;10511335;28;20146;-81
2021/08/12 20:45:50;;;;;;;13.68;7.93;;;;;;;21.27;58.39;101987.00;10530997;28;20050;-80
2021/08/12 20:50:51;;;;;;;8.63;7.15;;;;;;;21.08;58.32;101976.13;10529973;28;20032;-80
2021/08/12 20:55:51;;;;;;;12.77;6.70;;;;;;;21.10;58.46;101992.44;10511025;28;20032;-79
2021/08/12 21:00:52;;;;;;;7.75;5.55;;;;;;;20.77;58.74;101955.34;10531005;28;20146;-80
2021/08/12 21:05:53;;;;;;;15.52;7.45;;;;;;;21.01;58.72;101994.69;10514875;28;20115;-80
2021/08/12 21:10:53;;;;;;;7.20;6.15;;;;;;;20.93;59.32;101999.72;10514927;28;20031;-81
2021/08/12 21:15:53;;;;;;;8.93;6.75;;;;;;;20.85;59.40;101995.44;10536826;28;20067;-81
2021/08/12 21:20:55;;;;;;;12.77;6.32;;;;;;;20.65;59.48;101969.09;10503405;28;20483;-80
2021/08/12 21:25:55;;;;;;;8.93;7.18;;;;;;;20.72;59.49;101987.41;10539619;28;20123;-82
2021/08/12 21:30:56;;;;;;;10.25;7.00;;;;;;;20.62;59.98;101977.84;10503703;28;20051;-83
2021/08/12 21:35:57;;;;;;;9.05;7.00;;;;;;;20.50;59.91;101960.44;10517351;28;20545;-82
2021/08/12 21:40:58;;;;;;;8.25;7.13;;;;;;;20.36;60.18;101935.06;10519409;28;20108;-82
2021/08/12 21:45:59;;;;;;;7.20;6.50;;;;;;;20.34;59.96;101941.88;10537611;28;20119;-82
2021/08/12 21:51:00;;;;;;;13.40;8.02;;;;;;;20.44;59.94;101980.66;10518066;28;20044;-82
2021/08/12 21:56:01;;;;;;;13.18;6.90;;;;;;;20.29;60.93;101986.59;10536258;28;20027;-82
2021/08/12 22:01:02;;;;;;;8.73;6.70;;;;;;;20.24;61.44;101980.13;10518085;28;20043;-82
2021/08/12 22:06:03;;;;;;;12.68;7.82;;;;;;;20.15;61.75;101974.13;10500957;28;20460;-83
2021/08/12 22:11:03;;;;;;;14.13;6.40;;;;;;;20.24;61.67;101977.38;10497720;28;20031;-83
2021/08/12 22:16:04;;;;;;;11.48;8.02;;;;;;;20.25;61.16;101977.13;10532944;28;20054;-82
2021/08/12 22:21:04;;;;;;;10.10;7.55;;;;;;;20.18;60.69;101979.16;10532559;28;20032;-82
2021/08/12 22:26:05;;;;;;;15.18;9.02;;;;;;;19.75;61.43;101919.75;10516620;28;20431;-82
2021/08/12 22:31:05;;;;;;;9.10;7.38;;;;;;;20.13;62.46;101968.88;10533098;28;20101;-83
2021/08/12 22:36:07;;;;;;;12.15;7.18;;;;;;;20.15;62.11;101969.47;10514249;28;20115;-82
2021/08/12 22:41:07;;;;;;;9.95;7.93;;;;;;;20.19;62.42;101965.16;10530606;28;20470;-82
2021/08/12 22:46:08;;;;;;;10.50;7.75;;;;;;;20.13;62.04;101966.13;10514479;28;20114;-82
2021/08/12 22:51:08;;;;;;;10.82;7.78;;;;;;;20.05;61.76;101941.72;10532934;28;20032;-82
2021/08/12 22:56:10;;;;;;;12.05;7.30;;;;;;;20.09;62.49;101961.31;10514194;28;20067;-82